createdAt,value
2023-02-02T00:04:40.215Z,100.00
2023-02-02T00:09:41.887Z,100.00
2023-02-02T00:14:45.025Z,100.00
2023-02-02T00:19:46.817Z,100.00
2023-02-02T00:24:53.791Z,100.00
2023-02-02T00:29:57.542Z,100.00
2023-02-02T00:34:59.206Z,100.00
2023-02-02T00:40:05.778Z,100.00
2023-02-02T00:45:16.801Z,100.00
2023-02-02T00:50:23.023Z,100.00
2023-02-02T00:55:27.956Z,100.00
2023-02-02T01:00:33.355Z,100.00
2023-02-02T01:05:35.140Z,100.00
2023-02-02T01:10:39.072Z,100.00
2023-02-02T01:15:40.813Z,100.00
2023-02-02T01:20:43.079Z,100.00
2023-02-02T01:25:45.627Z,100.00
2023-02-02T01:30:49.632Z,100.00
2023-02-02T01:35:55.746Z,100.00
2023-02-02T01:40:58.315Z,100.00
2023-02-02T01:46:04.765Z,100.00
2023-02-02T01:51:12.219Z,100.00
2023-02-02T01:56:25.228Z,100.00
2023-02-02T02:01:35.810Z,100.00
2023-02-02T02:06:45.386Z,100.00
2023-02-02T02:12:01.338Z,100.00
2023-02-02T02:17:27.757Z,100.00
2023-02-02T02:23:06.184Z,100.00
2023-02-02T02:28:16.547Z,100.00
2023-02-02T02:33:53.790Z,100.00
2023-02-02T02:39:39.420Z,100.00
2023-02-02T02:44:42.158Z,100.00
2023-02-02T02:49:47.611Z,100.00
2023-02-02T02:54:55.372Z,100.00
2023-02-02T03:00:15.850Z,100.00
2023-02-02T03:05:24.667Z,100.00
2023-02-02T03:10:30.455Z,100.00
2023-02-02T03:15:34.845Z,100.00
2023-02-02T03:20:38.870Z,100.00
2023-02-02T03:25:44.367Z,100.00
2023-02-02T03:30:51.018Z,100.00
2023-02-02T03:35:55.136Z,100.00
2023-02-02T03:41:04.222Z,100.00
2023-02-02T03:46:06.572Z,100.00
2023-02-02T03:51:15.063Z,100.00
2023-02-02T03:56:17.182Z,100.00
2023-02-02T04:01:27.958Z,100.00
2023-02-02T04:06:30.259Z,100.00
2023-02-02T04:11:32.376Z,100.00
2023-02-02T04:16:38.899Z,100.00
2023-02-02T04:21:45.674Z,100.00
2023-02-02T04:26:49.874Z,100.00
2023-02-02T04:31:51.797Z,100.00
2023-02-02T04:36:56.147Z,100.00
2023-02-02T04:42:03.603Z,100.00
2023-02-02T04:47:05.382Z,100.00
2023-02-02T04:52:07.224Z,100.00
2023-02-02T04:57:08.959Z,100.00
2023-02-02T05:02:12.923Z,100.00
2023-02-02T05:07:16.948Z,100.00
2023-02-02T05:12:21.148Z,100.00
2023-02-02T05:17:25.408Z,100.00
2023-02-02T05:22:29.428Z,100.00
2023-02-02T05:27:31.087Z,100.00
2023-02-02T05:32:39.857Z,100.00
2023-02-02T05:37:44.515Z,100.00
2023-02-02T05:42:48.691Z,100.00
2023-02-02T05:47:58.382Z,100.00
2023-02-02T05:53:02.764Z,100.00
2023-02-02T05:58:08.711Z,100.00
2023-02-02T06:03:12.903Z,100.00
2023-02-02T06:08:19.629Z,100.00
2023-02-02T06:13:23.824Z,100.00
2023-02-02T06:18:27.989Z,100.00
2023-02-02T06:23:32.924Z,100.00
2023-02-02T06:28:34.601Z,100.00
2023-02-02T06:33:38.859Z,100.00
2023-02-02T06:38:45.113Z,100.00
2023-02-02T06:43:48.820Z,100.00
2023-02-02T06:48:50.500Z,100.00
2023-02-02T06:53:54.775Z,100.00
2023-02-02T06:58:56.754Z,100.00
2023-02-02T07:03:59.107Z,100.00
2023-02-02T07:09:03.607Z,100.00
2023-02-02T07:14:08.294Z,100.00
2023-02-02T07:19:10.022Z,100.00
2023-02-02T07:24:11.691Z,100.00
2023-02-02T07:29:14.754Z,100.00
2023-02-02T07:34:16.880Z,100.00
2023-02-02T07:39:18.666Z,100.00
2023-02-02T07:44:22.904Z,100.00
2023-02-02T07:49:27.085Z,100.00
2023-02-02T07:54:32.195Z,100.00
2023-02-02T07:59:34.145Z,100.00
2023-02-02T08:04:38.479Z,100.00
2023-02-02T08:09:46.752Z,100.00
2023-02-02T08:14:54.528Z,100.00
2023-02-02T08:20:01.349Z,100.00
2023-02-02T08:25:05.509Z,100.00
2023-02-02T08:30:08.323Z,100.00
2023-02-02T08:35:10.161Z,100.00
2023-02-02T08:40:14.188Z,100.00
2023-02-02T08:46:01.722Z,100.00
2023-02-02T08:50:42.731Z,100.00
2023-02-02T08:55:48.645Z,100.00
2023-02-02T09:00:52.606Z,100.00
2023-02-02T09:05:55.411Z,100.00
2023-02-02T09:11:06.662Z,100.00
2023-02-02T09:16:16.446Z,100.00
2023-02-02T09:21:21.243Z,100.00
2023-02-02T09:26:29.682Z,100.00
2023-02-02T09:31:36.711Z,100.00
2023-02-02T09:36:42.789Z,100.00
2023-02-02T09:42:05.000Z,100.00
2023-02-02T09:47:18.196Z,100.00
2023-02-02T09:52:50.571Z,100.00
2023-02-02T09:58:02.616Z,100.00
2023-02-02T10:03:21.444Z,100.00
2023-02-02T10:08:36.144Z,100.00
2023-02-02T10:13:43.641Z,100.00
2023-02-02T10:19:07.296Z,100.00
2023-02-02T10:24:22.741Z,100.00
2023-02-02T10:29:25.503Z,100.00
2023-02-02T10:34:44.114Z,100.00
2023-02-02T10:40:18.669Z,100.00
2023-02-02T10:45:21.327Z,100.00
2023-02-02T10:50:27.809Z,100.00
2023-02-02T10:55:50.067Z,100.00
2023-02-02T11:00:58.050Z,100.00
2023-02-02T11:06:20.644Z,100.00
2023-02-02T11:11:42.477Z,100.00
2023-02-02T11:17:03.544Z,100.00
2023-02-02T11:22:25.302Z,100.00
2023-02-02T11:27:49.483Z,100.00
2023-02-02T11:32:51.225Z,100.00
2023-02-02T11:38:18.299Z,100.00
2023-02-02T11:43:30.984Z,100.00
2023-02-02T11:48:39.389Z,100.00
2023-02-02T11:53:46.969Z,100.00
2023-02-02T11:58:49.158Z,100.00
2023-02-02T12:03:52.821Z,99.77
2023-02-02T12:08:58.576Z,98.11
2023-02-02T12:14:12.236Z,97.98
2023-02-02T12:19:26.728Z,95.66
2023-02-02T12:24:32.517Z,96.67
2023-02-02T12:29:48.550Z,94.37
2023-02-02T12:35:05.505Z,91.85
2023-02-02T12:40:18.511Z,91.74
2023-02-02T12:45:25.432Z,89.39
2023-02-02T12:50:51.325Z,90.85
2023-02-02T12:56:27.424Z,90.12
2023-02-02T13:01:41.488Z,89.83
2023-02-02T13:07:01.022Z,87.89
2023-02-02T13:12:12.146Z,86.46
2023-02-02T13:17:56.426Z,83.36
2023-02-02T13:23:00.460Z,81.78
2023-02-02T13:28:07.176Z,81.17
2023-02-02T13:33:33.037Z,80.85
2023-02-02T13:38:42.022Z,80.79
2023-02-02T13:43:50.645Z,81.67
2023-02-02T13:48:58.611Z,83.19
2023-02-02T13:54:19.525Z,83.71
2023-02-02T13:59:42.400Z,83.62
2023-02-02T14:04:55.218Z,84.80
2023-02-02T14:10:01.008Z,86.29
2023-02-02T14:15:02.973Z,87.28
2023-02-02T14:20:46.327Z,85.58
2023-02-02T14:26:13.595Z,84.70
2023-02-02T14:31:52.237Z,84.24
2023-02-02T14:37:17.643Z,86.33
2023-02-02T14:42:50.148Z,86.56
2023-02-02T14:47:55.188Z,86.59
2023-02-02T14:53:04.032Z,87.85
2023-02-02T14:58:06.816Z,87.68
2023-02-02T15:03:47.785Z,88.60
2023-02-02T15:09:20.538Z,89.53
2023-02-02T15:14:23.425Z,89.38
2023-02-02T15:19:36.442Z,90.42
2023-02-02T15:24:40.414Z,91.13
2023-02-02T15:29:48.725Z,92.12
2023-02-02T15:34:58.155Z,96.01
2023-02-02T15:40:04.544Z,100.00
2023-02-02T15:45:31.012Z,100.00
2023-02-02T15:50:35.596Z,100.00
2023-02-02T15:55:44.086Z,100.00
2023-02-02T16:01:03.099Z,100.00
2023-02-02T16:06:08.421Z,100.00
2023-02-02T16:11:18.190Z,100.00
2023-02-02T16:16:36.041Z,100.00
2023-02-02T16:21:42.972Z,100.00
2023-02-02T16:26:45.668Z,100.00
2023-02-02T16:31:48.588Z,100.00
2023-02-02T16:37:16.643Z,100.00
2023-02-02T16:42:30.541Z,100.00
2023-02-02T16:47:34.340Z,100.00
2023-02-02T16:53:04.843Z,100.00
2023-02-02T16:58:13.254Z,100.00
2023-02-02T17:03:20.241Z,100.00
2023-02-02T17:08:35.019Z,100.00
2023-02-02T17:13:39.468Z,100.00
2023-02-02T17:18:41.311Z,100.00
2023-02-02T17:23:55.036Z,100.00
2023-02-02T17:29:00.303Z,100.00
2023-02-02T17:34:11.733Z,100.00
2023-02-02T17:39:20.447Z,100.00
2023-02-02T17:44:27.488Z,100.00
2023-02-02T17:49:29.191Z,100.00
2023-02-02T17:54:35.928Z,100.00
2023-02-02T17:59:37.699Z,100.00
2023-02-02T18:04:43.144Z,100.00
2023-02-02T18:09:47.957Z,100.00
2023-02-02T18:14:52.369Z,100.00
2023-02-02T18:19:56.740Z,100.00
2023-02-02T18:24:58.974Z,100.00
2023-02-02T18:30:03.759Z,100.00
2023-02-02T18:35:11.081Z,100.00
2023-02-02T18:40:13.117Z,100.00
2023-02-02T18:45:14.942Z,100.00
2023-02-02T18:50:21.151Z,100.00
2023-02-02T18:55:23.030Z,100.00
2023-02-02T19:00:27.624Z,100.00
2023-02-02T19:05:50.809Z,100.00
2023-02-02T19:11:03.326Z,100.00
2023-02-02T19:16:19.347Z,100.00
2023-02-02T19:21:28.348Z,100.00
2023-02-02T19:26:42.247Z,100.00
2023-02-02T19:31:46.830Z,100.00
2023-02-02T19:36:52.257Z,100.00
2023-02-02T19:41:59.785Z,100.00
2023-02-02T19:47:03.165Z,100.00
2023-02-02T19:52:16.748Z,100.00
2023-02-02T19:57:26.927Z,100.00
2023-02-02T20:02:43.569Z,100.00
2023-02-02T20:07:45.639Z,100.00
2023-02-02T20:12:53.465Z,100.00
2023-02-02T20:17:58.779Z,100.00
2023-02-02T20:23:00.522Z,100.00
2023-02-02T20:28:08.576Z,100.00
2023-02-02T20:33:27.339Z,100.00
2023-02-02T20:38:39.282Z,100.00
2023-02-02T20:43:44.571Z,100.00
2023-02-02T20:48:52.647Z,100.00
2023-02-02T20:53:56.947Z,100.00
2023-02-02T20:59:02.071Z,100.00
2023-02-02T21:04:07.236Z,100.00
2023-02-02T21:09:09.834Z,100.00
2023-02-02T21:14:11.596Z,100.00
2023-02-02T21:19:18.200Z,100.00
2023-02-02T21:24:22.138Z,100.00
2023-02-02T21:29:25.434Z,100.00
2023-02-02T21:34:27.245Z,100.00
2023-02-02T21:39:35.087Z,100.00
2023-02-02T21:44:52.466Z,100.00
2023-02-02T21:50:01.185Z,100.00
2023-02-02T21:55:22.755Z,100.00
2023-02-02T22:00:31.009Z,100.00
2023-02-02T22:05:39.145Z,100.00
2023-02-02T22:10:43.486Z,100.00
2023-02-02T22:15:50.859Z,100.00
2023-02-02T22:20:56.572Z,100.00
2023-02-02T22:25:58.909Z,100.00
2023-02-02T22:31:05.847Z,100.00
2023-02-02T22:36:10.517Z,100.00
2023-02-02T22:41:12.278Z,100.00
2023-02-02T22:46:16.407Z,100.00
2023-02-02T22:51:20.641Z,100.00
2023-02-02T22:56:24.711Z,100.00
2023-02-02T23:01:31.062Z,100.00
2023-02-02T23:06:34.965Z,100.00
2023-02-02T23:11:38.970Z,100.00
2023-02-02T23:16:43.402Z,100.00
2023-02-02T23:21:47.451Z,100.00
2023-02-02T23:26:53.948Z,100.00
2023-02-02T23:31:58.250Z,100.00
2023-02-02T23:37:04.691Z,100.00
2023-02-02T23:42:06.464Z,100.00
2023-02-02T23:47:12.978Z,100.00
2023-02-02T23:52:14.970Z,100.00
2023-02-02T23:57:21.393Z,100.00
